createdAt,value
2016-11-21T00:00:52.829Z,0
2016-11-21T00:02:02.103Z,0
2016-11-21T00:03:11.050Z,0
2016-11-21T00:04:19.672Z,0
2016-11-21T00:05:28.274Z,0
2016-11-21T00:06:38.016Z,0
2016-11-21T00:07:47.282Z,0
2016-11-21T00:08:55.910Z,0
2016-11-21T00:10:04.874Z,0
2016-11-21T00:11:13.493Z,0
2016-11-21T00:12:22.162Z,0
2016-11-21T00:13:31.440Z,0
2016-11-21T00:14:40.372Z,0
2016-11-21T00:15:49.651Z,0
2016-11-21T00:16:58.275Z,0
2016-11-21T00:18:08.169Z,0
2016-11-21T00:19:17.113Z,0
2016-11-21T00:20:26.682Z,0
2016-11-21T00:21:36.291Z,0
2016-11-21T00:22:45.565Z,0
2016-11-21T00:23:54.847Z,0
2016-11-21T00:25:04.094Z,0
2016-11-21T00:26:13.038Z,0
2016-11-21T00:27:21.972Z,0
2016-11-21T00:28:30.916Z,0
2016-11-21T00:29:39.983Z,0
2016-11-21T00:30:49.566Z,0
2016-11-21T00:31:58.176Z,0
2016-11-21T00:33:07.447Z,0
2016-11-21T00:34:16.377Z,0
2016-11-21T00:35:25.752Z,0
2016-11-21T00:36:34.358Z,0
2016-11-21T00:37:43.644Z,0
2016-11-21T00:38:52.595Z,0
2016-11-21T00:40:01.534Z,0
2016-11-21T00:41:10.195Z,0
2016-11-21T00:42:19.147Z,0
2016-11-21T00:43:28.430Z,0
2016-11-21T00:44:37.038Z,0
2016-11-21T00:45:46.294Z,0
2016-11-21T00:46:55.914Z,0
2016-11-21T00:48:04.857Z,0
2016-11-21T00:49:13.791Z,0
2016-11-21T00:50:23.055Z,0
2016-11-21T00:51:31.661Z,0
2016-11-21T00:52:41.068Z,0
2016-11-21T00:53:50.002Z,0
2016-11-21T00:54:58.948Z,0
2016-11-21T00:56:07.876Z,0
2016-11-21T00:57:16.491Z,0
2016-11-21T00:58:26.094Z,0
2016-11-21T00:59:35.032Z,0
2016-11-21T01:00:43.647Z,0
2016-11-21T01:01:53.237Z,0
2016-11-21T01:03:02.154Z,0
2016-11-21T01:04:11.144Z,0
2016-11-21T01:05:19.767Z,0
2016-11-21T01:06:28.401Z,0
2016-11-21T01:07:37.658Z,0
2016-11-21T01:08:46.598Z,0
2016-11-21T01:09:55.596Z,0
2016-11-21T01:11:04.225Z,0
2016-11-21T01:12:13.487Z,0
2016-11-21T01:13:22.432Z,0
2016-11-21T01:14:31.378Z,0
2016-11-21T01:15:40.356Z,0
2016-11-21T01:16:48.972Z,0
2016-11-21T01:17:57.948Z,0
2016-11-21T01:19:06.901Z,0
2016-11-21T01:20:16.155Z,0
2016-11-21T01:21:25.141Z,0
2016-11-21T01:22:33.758Z,0
2016-11-21T01:23:42.697Z,0
2016-11-21T01:24:51.977Z,0
2016-11-21T01:26:00.926Z,0
2016-11-21T01:27:09.583Z,0
2016-11-21T01:28:18.198Z,0
2016-11-21T01:29:26.820Z,0
2016-11-21T01:30:35.767Z,0
2016-11-21T01:31:45.018Z,0
2016-11-21T01:32:54.640Z,0
2016-11-21T01:34:03.589Z,0
2016-11-21T01:35:12.859Z,0
2016-11-21T01:36:21.794Z,0
2016-11-21T01:37:30.418Z,0
2016-11-21T01:38:39.089Z,0
2016-11-21T01:39:48.355Z,0
2016-11-21T01:40:57.311Z,0
2016-11-21T01:42:06.266Z,0
2016-11-21T01:43:15.202Z,0
2016-11-21T01:44:24.226Z,0
2016-11-21T01:45:33.158Z,0
2016-11-21T01:46:42.095Z,0
2016-11-21T01:47:51.685Z,0
2016-11-21T01:49:00.619Z,0
2016-11-21T01:50:09.601Z,0
2016-11-21T01:51:18.534Z,0
2016-11-21T01:52:27.490Z,0
2016-11-21T01:53:36.093Z,0
2016-11-21T01:54:45.699Z,0
2016-11-21T01:55:54.746Z,0
2016-11-21T01:57:03.679Z,0
2016-11-21T01:58:12.611Z,0
2016-11-21T01:59:21.576Z,0
2016-11-21T02:00:30.523Z,0
2016-11-21T02:01:39.487Z,0
2016-11-21T02:02:48.097Z,0
2016-11-21T02:03:56.725Z,0
2016-11-21T02:05:05.354Z,0
2016-11-21T02:06:13.986Z,0
2016-11-21T02:07:23.295Z,0
2016-11-21T02:08:31.913Z,0
2016-11-21T02:09:40.530Z,0
2016-11-21T02:10:49.486Z,0
2016-11-21T02:11:59.070Z,0
2016-11-21T02:13:07.732Z,0
2016-11-21T02:14:17.017Z,0
2016-11-21T02:15:25.633Z,0
2016-11-21T02:16:34.909Z,0
2016-11-21T02:17:43.535Z,0
2016-11-21T02:18:52.596Z,0
2016-11-21T02:20:01.854Z,0
2016-11-21T02:21:11.106Z,0
2016-11-21T02:22:19.726Z,0
2016-11-21T02:23:28.363Z,0
2016-11-21T02:24:37.652Z,0
2016-11-21T02:25:52.541Z,0
2016-11-21T02:27:01.474Z,0
2016-11-21T02:28:10.412Z,0
2016-11-21T02:29:19.341Z,0
2016-11-21T02:30:28.631Z,0
2016-11-21T02:31:37.249Z,0
2016-11-21T02:32:46.204Z,0
2016-11-21T02:33:55.768Z,0
2016-11-21T02:35:04.377Z,0
2016-11-21T02:36:13.770Z,0
2016-11-21T02:37:22.688Z,0
2016-11-21T02:38:31.641Z,0
2016-11-21T02:39:40.587Z,0
2016-11-21T02:40:49.194Z,0
2016-11-21T02:41:58.836Z,0
2016-11-21T02:43:07.769Z,0
2016-11-21T02:44:17.072Z,0
2016-11-21T02:45:26.049Z,0
2016-11-21T02:46:34.978Z,0
2016-11-21T02:47:44.283Z,0
2016-11-21T02:48:53.588Z,0
2016-11-21T02:50:02.212Z,0
2016-11-21T02:51:11.454Z,0
2016-11-21T02:52:20.378Z,0
2016-11-21T02:53:29.030Z,0
2016-11-21T02:54:37.950Z,0
2016-11-21T02:55:46.552Z,0
2016-11-21T02:56:55.154Z,0
2016-11-21T02:58:04.084Z,0
2016-11-21T02:59:13.053Z,0
2016-11-21T03:00:22.296Z,0
2016-11-21T03:01:31.540Z,0
2016-11-21T03:02:40.464Z,0
2016-11-21T03:03:50.040Z,0
2016-11-21T03:04:58.989Z,0
2016-11-21T03:06:08.232Z,0
2016-11-21T03:07:17.154Z,0
2016-11-21T03:08:26.079Z,0
2016-11-21T03:09:35.648Z,0
2016-11-21T03:10:44.297Z,0
2016-11-21T03:11:52.896Z,0
2016-11-21T03:13:01.512Z,0
2016-11-21T03:14:10.436Z,0
2016-11-21T03:15:19.357Z,0
2016-11-21T03:16:28.414Z,0
2016-11-21T03:17:37.026Z,0
2016-11-21T03:18:45.953Z,0
2016-11-21T03:19:55.197Z,0
2016-11-21T03:21:04.118Z,0
2016-11-21T03:22:13.068Z,0
2016-11-21T03:23:21.668Z,0
2016-11-21T03:24:30.590Z,0
2016-11-21T03:25:39.187Z,0
2016-11-21T03:26:47.783Z,0
2016-11-21T03:27:57.054Z,0
2016-11-21T03:29:06.314Z,0
2016-11-21T03:30:15.237Z,0
2016-11-21T03:31:23.834Z,0
2016-11-21T03:32:33.079Z,0
2016-11-21T03:33:42.129Z,0
2016-11-21T03:34:50.727Z,0
2016-11-21T03:35:59.647Z,0
2016-11-21T03:37:08.245Z,0
2016-11-21T03:38:17.171Z,0
2016-11-21T03:39:26.188Z,0
2016-11-21T03:40:35.428Z,0
2016-11-21T03:41:44.030Z,0
2016-11-21T03:42:52.956Z,0
2016-11-21T03:44:01.876Z,0
2016-11-21T03:45:10.900Z,0
2016-11-21T03:46:19.826Z,0
2016-11-21T03:47:28.748Z,0
2016-11-21T03:48:37.351Z,0
2016-11-21T03:49:45.962Z,0
2016-11-21T03:50:54.663Z,0
2016-11-21T03:52:03.264Z,0
2016-11-21T03:53:12.512Z,0
2016-11-21T03:54:21.762Z,0
2016-11-21T03:55:30.692Z,0
2016-11-21T03:56:39.712Z,0
2016-11-21T03:57:48.960Z,0
2016-11-21T03:58:58.843Z,0
2016-11-21T04:00:08.095Z,0
2016-11-21T04:01:17.019Z,0
2016-11-21T04:02:25.719Z,0
2016-11-21T04:03:34.672Z,0
2016-11-21T04:04:43.912Z,0
2016-11-21T04:05:52.512Z,0
2016-11-21T04:07:01.458Z,0
2016-11-21T04:08:10.725Z,0
2016-11-21T04:09:19.972Z,0
2016-11-21T04:10:28.573Z,0
2016-11-21T04:11:37.497Z,0
2016-11-21T04:12:46.420Z,0
2016-11-21T04:13:55.019Z,0
2016-11-21T04:15:03.621Z,0
2016-11-21T04:16:12.541Z,0
2016-11-21T04:17:21.789Z,0
2016-11-21T04:18:30.706Z,0
2016-11-21T04:19:39.358Z,0
2016-11-21T04:20:48.279Z,0
2016-11-21T04:21:57.210Z,0
2016-11-21T04:23:06.137Z,0
2016-11-21T04:24:14.759Z,0
2016-11-21T04:25:23.727Z,0
2016-11-21T04:26:32.324Z,0
2016-11-21T04:27:41.602Z,0
2016-11-21T04:28:50.201Z,0
2016-11-21T04:29:58.800Z,0
2016-11-21T04:31:07.754Z,0
2016-11-21T04:32:16.673Z,0
2016-11-21T04:33:25.594Z,0
2016-11-21T04:34:34.513Z,0
2016-11-21T04:35:43.437Z,0
2016-11-21T04:36:52.456Z,0
2016-11-21T04:38:01.380Z,0
2016-11-21T04:39:10.302Z,0
2016-11-21T04:40:18.903Z,0
2016-11-21T04:41:28.147Z,0
2016-11-21T04:42:38.117Z,0
2016-11-21T04:43:47.036Z,0
2016-11-21T04:44:55.957Z,0
2016-11-21T04:46:04.560Z,0
2016-11-21T04:47:13.479Z,0
2016-11-21T04:48:22.430Z,0
2016-11-21T04:49:31.994Z,0
2016-11-21T04:50:41.243Z,0
2016-11-21T04:51:49.850Z,0
2016-11-21T04:52:59.094Z,0
2016-11-21T04:54:08.368Z,0
2016-11-21T04:55:17.613Z,0
2016-11-21T04:56:26.894Z,0
2016-11-21T04:57:36.143Z,0
2016-11-21T04:58:45.063Z,0
2016-11-21T04:59:54.335Z,0
2016-11-21T05:01:02.932Z,0
2016-11-21T05:02:11.858Z,0
2016-11-21T05:03:20.464Z,0
2016-11-21T05:04:29.386Z,0
2016-11-21T05:05:38.658Z,0
2016-11-21T05:06:47.580Z,0
2016-11-21T05:07:56.506Z,0
2016-11-21T05:09:05.427Z,0
2016-11-21T05:10:14.347Z,0
2016-11-21T05:11:23.719Z,0
2016-11-21T05:12:32.358Z,0
2016-11-21T05:13:41.280Z,0
2016-11-21T05:14:49.876Z,0
2016-11-21T05:15:58.477Z,0
2016-11-21T05:17:08.173Z,0
2016-11-21T05:18:17.100Z,0
2016-11-21T05:19:26.021Z,0
2016-11-21T05:20:34.943Z,0
2016-11-21T05:21:43.869Z,0
2016-11-21T05:22:53.238Z,0
2016-11-21T05:24:02.160Z,0
2016-11-21T05:25:10.759Z,0
2016-11-21T05:26:19.676Z,0
2016-11-21T05:27:28.273Z,0
2016-11-21T05:28:37.250Z,0
2016-11-21T05:29:45.851Z,0
2016-11-21T05:30:55.090Z,0
2016-11-21T05:32:04.015Z,0
2016-11-21T05:33:12.935Z,0
2016-11-21T05:34:22.201Z,0
2016-11-21T05:35:31.123Z,0
2016-11-21T05:36:40.397Z,0
2016-11-21T05:37:49.962Z,0
2016-11-21T05:38:58.883Z,0
2016-11-21T05:40:08.153Z,0
2016-11-21T05:41:17.404Z,0
2016-11-21T05:42:25.999Z,0
2016-11-21T05:43:34.604Z,0
2016-11-21T05:44:43.526Z,0
2016-11-21T05:45:53.196Z,0
2016-11-21T05:47:02.438Z,0
2016-11-21T05:48:11.069Z,0
2016-11-21T05:49:20.320Z,0
2016-11-21T05:50:29.588Z,0
2016-11-21T05:51:38.234Z,0
2016-11-21T05:52:47.480Z,0
2016-11-21T05:53:56.077Z,0
2016-11-21T05:55:04.993Z,0
2016-11-21T05:56:13.919Z,0
2016-11-21T05:57:22.892Z,0
2016-11-21T05:58:31.829Z,0
2016-11-21T05:59:41.075Z,0
2016-11-21T06:00:49.997Z,0
2016-11-21T06:01:58.927Z,0
2016-11-21T06:03:07.905Z,0
2016-11-21T06:04:17.154Z,0
2016-11-21T06:05:25.757Z,0
2016-11-21T06:06:34.684Z,0
2016-11-21T06:07:43.282Z,0
2016-11-21T06:08:52.570Z,0
2016-11-21T06:10:01.811Z,0
2016-11-21T06:11:10.735Z,0
2016-11-21T06:12:19.654Z,0
2016-11-21T06:13:29.217Z,0
2016-11-21T06:14:38.807Z,0
2016-11-21T06:15:47.729Z,0
2016-11-21T06:16:56.329Z,0
2016-11-21T06:18:05.247Z,0
2016-11-21T06:19:13.843Z,0
2016-11-21T06:20:23.192Z,0
2016-11-21T06:21:31.795Z,0
2016-11-21T06:22:40.715Z,0
2016-11-21T06:23:49.312Z,0
2016-11-21T06:24:57.914Z,0
2016-11-21T06:26:07.479Z,0
2016-11-21T06:27:16.087Z,0
2016-11-21T06:28:25.014Z,0
2016-11-21T06:29:33.939Z,0
2016-11-21T06:30:42.869Z,0
2016-11-21T06:31:51.529Z,0
2016-11-21T06:33:00.456Z,4
2016-11-21T06:34:09.380Z,4
2016-11-21T06:35:18.309Z,4
2016-11-21T06:36:27.233Z,4
2016-11-21T06:37:36.902Z,4
2016-11-21T06:38:45.826Z,8
2016-11-21T06:39:54.432Z,8
2016-11-21T06:41:03.034Z,8
2016-11-21T06:42:11.655Z,12
2016-11-21T06:43:21.378Z,16
2016-11-21T06:44:30.308Z,20
2016-11-21T06:45:38.909Z,24
2016-11-21T06:46:47.834Z,24
2016-11-21T06:47:57.076Z,28
2016-11-21T06:49:06.311Z,36
2016-11-21T06:50:15.235Z,40
2016-11-21T06:51:23.837Z,52
2016-11-21T06:52:32.758Z,64
2016-11-21T06:53:41.693Z,72
2016-11-21T06:54:51.316Z,88
2016-11-21T06:56:00.245Z,100
2016-11-21T06:57:09.170Z,112
2016-11-21T06:58:17.786Z,128
2016-11-21T06:59:26.721Z,148
2016-11-21T07:00:35.995Z,164
2016-11-21T07:01:44.914Z,180
2016-11-21T07:02:53.847Z,196
2016-11-21T07:04:03.030Z,212
2016-11-21T07:05:12.601Z,224
2016-11-21T07:06:21.926Z,228
2016-11-21T07:07:30.857Z,240
2016-11-21T07:08:39.787Z,248
2016-11-21T07:09:48.709Z,260
2016-11-21T07:10:57.641Z,276
2016-11-21T07:12:06.592Z,296
2016-11-21T07:13:15.527Z,316
2016-11-21T07:14:24.451Z,340
2016-11-21T07:15:33.377Z,360
2016-11-21T07:16:42.300Z,384
2016-11-21T07:17:50.980Z,408
2016-11-21T07:18:59.578Z,440
2016-11-21T07:20:08.178Z,476
2016-11-21T07:21:16.785Z,532
2016-11-21T07:22:25.707Z,608
2016-11-21T07:23:35.077Z,692
2016-11-21T07:24:44.358Z,768
2016-11-21T07:25:52.974Z,840
2016-11-21T07:27:02.541Z,912
2016-11-21T07:28:11.143Z,976
2016-11-21T07:29:20.762Z,1056
2016-11-21T07:30:29.365Z,1144
2016-11-21T07:31:37.972Z,1244
2016-11-21T07:32:47.539Z,1360
2016-11-21T07:33:56.470Z,1428
2016-11-21T07:35:05.457Z,1500
2016-11-21T07:36:14.701Z,1568
2016-11-21T07:37:23.305Z,1644
2016-11-21T07:38:32.554Z,1712
2016-11-21T07:39:41.799Z,1764
2016-11-21T07:40:51.067Z,1852
2016-11-21T07:41:59.668Z,1900
2016-11-21T07:43:08.599Z,1956
2016-11-21T07:44:17.822Z,2028
2016-11-21T07:45:26.734Z,2164
2016-11-21T07:46:35.989Z,2244
2016-11-21T07:47:44.916Z,2268
2016-11-21T07:48:54.158Z,2268
2016-11-21T07:50:03.084Z,2260
2016-11-21T07:51:11.991Z,2276
2016-11-21T07:52:20.949Z,2396
2016-11-21T07:53:30.240Z,2560
2016-11-21T07:54:38.838Z,2652
2016-11-21T07:55:48.079Z,2640
2016-11-21T07:56:56.666Z,2508
2016-11-21T07:58:06.127Z,2464
2016-11-21T07:59:14.709Z,2376
2016-11-21T08:00:23.293Z,2204
2016-11-21T08:01:32.507Z,2088
2016-11-21T08:02:41.088Z,2224
2016-11-21T08:03:50.013Z,2456
2016-11-21T08:04:58.592Z,2552
2016-11-21T08:06:07.172Z,2724
2016-11-21T08:07:15.765Z,2880
2016-11-21T08:08:24.673Z,2940
2016-11-21T08:09:33.924Z,2936
2016-11-21T08:10:42.821Z,2916
2016-11-21T08:11:52.043Z,2820
2016-11-21T08:13:00.942Z,2592
2016-11-21T08:14:09.548Z,2544
2016-11-21T08:15:18.481Z,2700
2016-11-21T08:16:27.695Z,2860
2016-11-21T08:17:36.591Z,2672
2016-11-21T08:18:45.488Z,2600
2016-11-21T08:19:55.340Z,2452
2016-11-21T08:21:04.321Z,2368
2016-11-21T08:22:13.217Z,2232
2016-11-21T08:23:22.115Z,2436
2016-11-21T08:24:31.340Z,2892
2016-11-21T08:25:39.924Z,3300
2016-11-21T08:26:49.171Z,3460
2016-11-21T08:27:58.384Z,3480
2016-11-21T08:29:06.964Z,3552
2016-11-21T08:30:15.859Z,3388
2016-11-21T08:31:24.441Z,3184
2016-11-21T08:32:33.691Z,3072
2016-11-21T08:33:42.590Z,2672
2016-11-21T08:34:51.485Z,2412
2016-11-21T08:36:00.067Z,2232
2016-11-21T08:37:08.964Z,2100
2016-11-21T08:38:18.261Z,1856
2016-11-21T08:39:27.189Z,1652
2016-11-21T08:40:36.086Z,1540
2016-11-21T08:41:44.667Z,1360
2016-11-21T08:42:53.885Z,1252
2016-11-21T08:44:03.450Z,1264
2016-11-21T08:45:12.682Z,1244
2016-11-21T08:46:21.579Z,1248
2016-11-21T08:47:30.498Z,1280
2016-11-21T08:48:39.425Z,1420
2016-11-21T08:49:48.749Z,1700
2016-11-21T08:50:57.704Z,2000
2016-11-21T08:52:06.284Z,2280
2016-11-21T08:53:15.495Z,2728
2016-11-21T08:54:24.072Z,3052
2016-11-21T08:55:33.273Z,3160
2016-11-21T08:56:41.852Z,3192
2016-11-21T08:57:51.064Z,3196
2016-11-21T08:59:00.282Z,3268
2016-11-21T09:00:09.550Z,2904
2016-11-21T09:01:18.812Z,2792
2016-11-21T09:02:28.032Z,2996
2016-11-21T09:03:36.611Z,2772
2016-11-21T09:04:45.524Z,2212
2016-11-21T09:05:54.736Z,2160
2016-11-21T09:07:03.998Z,2184
2016-11-21T09:08:12.895Z,2236
2016-11-21T09:09:21.792Z,2112
2016-11-21T09:10:30.372Z,2100
2016-11-21T09:11:39.271Z,2116
2016-11-21T09:12:48.269Z,2144
2016-11-21T09:13:57.500Z,2128
2016-11-21T09:15:06.717Z,2052
2016-11-21T09:16:15.612Z,2004
2016-11-21T09:17:24.509Z,2016
2016-11-21T09:18:33.186Z,1996
2016-11-21T09:19:42.088Z,2048
2016-11-21T09:20:51.629Z,2084
2016-11-21T09:22:00.236Z,2172
2016-11-21T09:23:09.139Z,2296
2016-11-21T09:24:18.154Z,2360
2016-11-21T09:25:26.739Z,3020
2016-11-21T09:26:36.001Z,3616
2016-11-21T09:27:44.899Z,3892
2016-11-21T09:28:53.473Z,3924
2016-11-21T09:30:02.401Z,4288
2016-11-21T09:31:11.304Z,4456
2016-11-21T09:32:19.885Z,4416
2016-11-21T09:33:29.425Z,4152
2016-11-21T09:34:38.006Z,3772
2016-11-21T09:35:47.004Z,3540
2016-11-21T09:36:55.583Z,3368
2016-11-21T09:38:04.487Z,3196
2016-11-21T09:39:13.387Z,3748
2016-11-21T09:40:21.967Z,5076
2016-11-21T09:41:30.598Z,5352
2016-11-21T09:42:39.206Z,5012
2016-11-21T09:43:48.101Z,4848
2016-11-21T09:44:57.636Z,4596
2016-11-21T09:46:06.535Z,4184
2016-11-21T09:47:15.813Z,3952
2016-11-21T09:48:24.390Z,4148
2016-11-21T09:49:33.297Z,4072
2016-11-21T09:50:42.512Z,3968
2016-11-21T09:51:51.093Z,4004
2016-11-21T09:53:00.358Z,4388
2016-11-21T09:54:09.258Z,4380
2016-11-21T09:55:18.163Z,4144
2016-11-21T09:56:27.379Z,4068
2016-11-21T09:57:36.600Z,4244
2016-11-21T09:58:45.549Z,4456
2016-11-21T09:59:54.446Z,4520
2016-11-21T10:01:03.670Z,4824
2016-11-21T10:02:12.880Z,4976
2016-11-21T10:03:22.097Z,4608
2016-11-21T10:04:31.096Z,4200
2016-11-21T10:05:39.995Z,3864
2016-11-21T10:06:48.581Z,3436
2016-11-21T10:07:57.163Z,3024
2016-11-21T10:09:06.072Z,2944
2016-11-21T10:10:15.108Z,2916
2016-11-21T10:11:23.688Z,2876
2016-11-21T10:12:32.272Z,2716
2016-11-21T10:13:41.486Z,2396
2016-11-21T10:14:50.708Z,2028
2016-11-21T10:15:59.357Z,1776
2016-11-21T10:17:08.264Z,1760
2016-11-21T10:18:17.169Z,1892
2016-11-21T10:19:26.387Z,2292
2016-11-21T10:20:35.609Z,2564
2016-11-21T10:21:44.615Z,2712
2016-11-21T10:22:54.157Z,2724
2016-11-21T10:24:02.740Z,2616
2016-11-21T10:25:11.636Z,2652
2016-11-21T10:26:20.537Z,2672
2016-11-21T10:27:30.102Z,2736
2016-11-21T10:28:39.321Z,2756
2016-11-21T10:29:47.901Z,2752
2016-11-21T10:30:56.481Z,3000
2016-11-21T10:32:05.067Z,3272
2016-11-21T10:33:13.998Z,3264
2016-11-21T10:34:22.593Z,3036
2016-11-21T10:35:31.814Z,2824
2016-11-21T10:36:40.714Z,2644
2016-11-21T10:37:49.609Z,2604
2016-11-21T10:38:58.542Z,2744
2016-11-21T10:40:07.438Z,2732
2016-11-21T10:41:16.337Z,2656
2016-11-21T10:42:25.559Z,2328
2016-11-21T10:43:34.454Z,2292
2016-11-21T10:44:43.389Z,2348
2016-11-21T10:45:52.295Z,2360
2016-11-21T10:47:01.516Z,2348
2016-11-21T10:48:10.416Z,2328
2016-11-21T10:49:19.320Z,2524
2016-11-21T10:50:28.251Z,2964
2016-11-21T10:51:37.477Z,3472
2016-11-21T10:52:46.708Z,3984
2016-11-21T10:53:55.936Z,4248
2016-11-21T10:55:04.844Z,3988
2016-11-21T10:56:13.731Z,3360
2016-11-21T10:57:22.316Z,2948
2016-11-21T10:58:30.899Z,2816
2016-11-21T10:59:39.836Z,2712
2016-11-21T11:00:48.741Z,2660
2016-11-21T11:01:58.117Z,2456
2016-11-21T11:03:07.041Z,2392
2016-11-21T11:04:15.623Z,2400
2016-11-21T11:05:24.551Z,2496
2016-11-21T11:06:33.776Z,3120
2016-11-21T11:07:42.405Z,3780
2016-11-21T11:08:51.303Z,4004
2016-11-21T11:10:00.217Z,3808
2016-11-21T11:11:09.125Z,3316
2016-11-21T11:12:17.705Z,3180
2016-11-21T11:13:26.704Z,3316
2016-11-21T11:14:35.627Z,3072
2016-11-21T11:15:44.209Z,2960
2016-11-21T11:16:53.139Z,3076
2016-11-21T11:18:01.725Z,3472
2016-11-21T11:19:10.680Z,3672
2016-11-21T11:20:19.645Z,3308
2016-11-21T11:21:28.566Z,3108
2016-11-21T11:22:37.467Z,3004
2016-11-21T11:23:46.714Z,2836
2016-11-21T11:24:56.386Z,2924
2016-11-21T11:26:05.301Z,3480
2016-11-21T11:27:14.517Z,3876
2016-11-21T11:28:23.430Z,4012
2016-11-21T11:29:32.016Z,4220
2016-11-21T11:30:41.641Z,4472
2016-11-21T11:31:50.223Z,4984
2016-11-21T11:32:59.123Z,5424
2016-11-21T11:34:08.660Z,5712
2016-11-21T11:35:17.895Z,5672
2016-11-21T11:36:26.943Z,5756
2016-11-21T11:37:36.170Z,5880
2016-11-21T11:38:44.761Z,5908
2016-11-21T11:39:53.663Z,5816
2016-11-21T11:41:02.569Z,5828
2016-11-21T11:42:11.567Z,5652
2016-11-21T11:43:20.150Z,5360
2016-11-21T11:44:28.738Z,5252
2016-11-21T11:45:37.969Z,5196
2016-11-21T11:46:46.552Z,5080
2016-11-21T11:47:55.188Z,4868
2016-11-21T11:49:03.770Z,4608
2016-11-21T11:50:12.668Z,4408
2016-11-21T11:51:21.889Z,4372
2016-11-21T11:52:30.787Z,4476
2016-11-21T11:53:39.421Z,4672
2016-11-21T11:54:49.171Z,4968
2016-11-21T11:55:57.754Z,5288
2016-11-21T11:57:07.116Z,5508
2016-11-21T11:58:15.714Z,5472
2016-11-21T11:59:25.085Z,5456
2016-11-21T12:00:33.715Z,5492
2016-11-21T12:01:42.651Z,5568
2016-11-21T12:02:51.553Z,5568
2016-11-21T12:04:00.476Z,5884
2016-11-21T12:05:09.438Z,6448
2016-11-21T12:06:18.024Z,6792
2016-11-21T12:07:26.605Z,6712
2016-11-21T12:08:35.190Z,6564
2016-11-21T12:09:43.771Z,6520
2016-11-21T12:10:52.984Z,6384
2016-11-21T12:12:01.885Z,6112
2016-11-21T12:13:11.105Z,5916
2016-11-21T12:14:19.729Z,5660
2016-11-21T12:15:28.637Z,5436
2016-11-21T12:16:37.592Z,5528
2016-11-21T12:17:46.809Z,5660
2016-11-21T12:18:55.707Z,5632
2016-11-21T12:20:04.932Z,5824
2016-11-21T12:21:13.527Z,5936
2016-11-21T12:22:22.842Z,5500
2016-11-21T12:23:31.439Z,5464
2016-11-21T12:24:40.343Z,5640
2016-11-21T12:25:49.245Z,5840
2016-11-21T12:26:58.150Z,5912
2016-11-21T12:28:07.188Z,5988
2016-11-21T12:29:15.811Z,5912
2016-11-21T12:30:24.712Z,5660
2016-11-21T12:31:33.934Z,5512
2016-11-21T12:32:43.150Z,5332
2016-11-21T12:33:52.035Z,5260
2016-11-21T12:35:00.616Z,5140
2016-11-21T12:36:09.518Z,5456
2016-11-21T12:37:18.427Z,6168
2016-11-21T12:38:27.010Z,6692
2016-11-21T12:39:36.544Z,6324
2016-11-21T12:40:46.083Z,5688
2016-11-21T12:41:54.663Z,4792
2016-11-21T12:43:04.199Z,4284
2016-11-21T12:44:12.785Z,3488
2016-11-21T12:45:21.741Z,3348
2016-11-21T12:46:30.642Z,3348
2016-11-21T12:47:40.179Z,3604
2016-11-21T12:48:48.762Z,3476
2016-11-21T12:49:57.342Z,3000
2016-11-21T12:51:06.030Z,2708
2016-11-21T12:52:14.612Z,2952
2016-11-21T12:53:23.235Z,3468
2016-11-21T12:54:31.886Z,3424
2016-11-21T12:55:40.809Z,3372
2016-11-21T12:56:50.745Z,3188
2016-11-21T12:57:59.966Z,3140
2016-11-21T12:59:08.545Z,2740
2016-11-21T13:00:17.125Z,2324
2016-11-21T13:01:26.023Z,2168
2016-11-21T13:02:35.226Z,1960
2016-11-21T13:03:44.125Z,1844
2016-11-21T13:04:53.022Z,2228
2016-11-21T13:06:01.603Z,3344
2016-11-21T13:07:10.507Z,3388
2016-11-21T13:08:19.727Z,3072
2016-11-21T13:09:28.313Z,3168
2016-11-21T13:10:37.542Z,3436
2016-11-21T13:11:46.442Z,3768
2016-11-21T13:12:55.341Z,3264
2016-11-21T13:14:04.564Z,2800
2016-11-21T13:15:13.142Z,2508
2016-11-21T13:16:21.727Z,2132
2016-11-21T13:17:30.947Z,1900
2016-11-21T13:18:40.164Z,1784
2016-11-21T13:19:50.074Z,1812
2016-11-21T13:20:58.656Z,1896
2016-11-21T13:22:07.566Z,1868
2016-11-21T13:23:16.474Z,1848
2016-11-21T13:24:25.691Z,1808
2016-11-21T13:25:34.894Z,1752
2016-11-21T13:26:43.800Z,1692
2016-11-21T13:27:52.387Z,1624
2016-11-21T13:29:01.600Z,1616
2016-11-21T13:30:10.498Z,1692
2016-11-21T13:31:20.116Z,1836
2016-11-21T13:32:29.016Z,1584
2016-11-21T13:33:38.343Z,1288
2016-11-21T13:34:47.609Z,1068
2016-11-21T13:35:56.995Z,968
2016-11-21T13:37:06.614Z,928
2016-11-21T13:38:15.899Z,928
2016-11-21T13:39:25.249Z,1084
2016-11-21T13:40:34.212Z,1352
2016-11-21T13:41:43.112Z,1736
2016-11-21T13:42:52.363Z,2244
2016-11-21T13:44:01.262Z,2340
2016-11-21T13:45:10.166Z,2324
2016-11-21T13:46:19.383Z,2636
2016-11-21T13:47:28.277Z,3052
2016-11-21T13:48:37.480Z,3532
2016-11-21T13:49:46.380Z,3580
2016-11-21T13:50:55.594Z,3460
2016-11-21T13:52:04.170Z,3304
2016-11-21T13:53:13.385Z,3228
2016-11-21T13:54:23.007Z,3228
2016-11-21T13:55:31.603Z,3184
2016-11-21T13:56:40.532Z,3304
2016-11-21T13:57:49.112Z,3292
2016-11-21T13:58:58.648Z,3216
2016-11-21T14:00:07.593Z,3104
2016-11-21T14:01:16.808Z,2928
2016-11-21T14:02:25.391Z,2584
2016-11-21T14:03:34.289Z,2056
2016-11-21T14:04:43.187Z,1800
2016-11-21T14:05:52.441Z,1544
2016-11-21T14:07:01.348Z,1388
2016-11-21T14:08:09.938Z,1408
2016-11-21T14:09:18.520Z,1360
2016-11-21T14:10:27.097Z,1304
2016-11-21T14:11:36.296Z,1304
2016-11-21T14:12:45.227Z,1332
2016-11-21T14:13:54.544Z,1392
2016-11-21T14:15:03.496Z,1476
2016-11-21T14:16:12.398Z,1404
2016-11-21T14:17:21.403Z,1348
2016-11-21T14:18:29.989Z,1208
2016-11-21T14:19:39.205Z,1064
2016-11-21T14:20:47.783Z,1004
2016-11-21T14:21:56.682Z,980
2016-11-21T14:23:05.308Z,924
2016-11-21T14:24:14.208Z,856
2016-11-21T14:25:23.139Z,804
2016-11-21T14:26:32.360Z,764
2016-11-21T14:27:41.651Z,748
2016-11-21T14:28:50.684Z,740
2016-11-21T14:29:59.590Z,720
2016-11-21T14:31:08.488Z,728
2016-11-21T14:32:17.710Z,688
2016-11-21T14:33:26.934Z,640
2016-11-21T14:34:35.566Z,576
2016-11-21T14:35:44.145Z,504
2016-11-21T14:36:52.727Z,472
2016-11-21T14:38:01.308Z,456
2016-11-21T14:39:10.526Z,452
2016-11-21T14:40:20.113Z,448
2016-11-21T14:41:28.720Z,428
2016-11-21T14:42:37.942Z,396
2016-11-21T14:43:47.156Z,360
2016-11-21T14:44:55.732Z,312
2016-11-21T14:46:04.356Z,276
2016-11-21T14:47:12.943Z,256
2016-11-21T14:48:21.835Z,240
2016-11-21T14:49:31.374Z,236
2016-11-21T14:50:40.280Z,244
2016-11-21T14:51:48.909Z,244
2016-11-21T14:52:58.127Z,244
2016-11-21T14:54:06.707Z,240
2016-11-21T14:55:15.283Z,224
2016-11-21T14:56:24.502Z,212
2016-11-21T14:57:33.459Z,204
2016-11-21T14:58:42.680Z,196
2016-11-21T14:59:51.580Z,184
2016-11-21T15:01:00.796Z,168
2016-11-21T15:02:09.381Z,160
2016-11-21T15:03:18.007Z,152
2016-11-21T15:04:26.912Z,144
2016-11-21T15:05:36.127Z,128
2016-11-21T15:06:45.034Z,120
2016-11-21T15:07:53.852Z,112
2016-11-21T15:09:03.116Z,116
2016-11-21T15:10:13.011Z,124
2016-11-21T15:11:22.039Z,132
2016-11-21T15:12:30.982Z,148
2016-11-21T15:13:40.553Z,144
2016-11-21T15:14:50.069Z,128
2016-11-21T15:15:58.652Z,120
2016-11-21T15:17:07.883Z,116
2016-11-21T15:18:17.139Z,108
2016-11-21T15:19:26.046Z,104
2016-11-21T15:20:35.656Z,96
2016-11-21T15:21:44.234Z,88
2016-11-21T15:22:53.768Z,92
2016-11-21T15:24:02.984Z,92
2016-11-21T15:25:11.878Z,84
2016-11-21T15:26:21.391Z,76
2016-11-21T15:27:30.604Z,72
2016-11-21T15:28:39.819Z,60
2016-11-21T15:29:48.715Z,52
2016-11-21T15:30:57.616Z,48
2016-11-21T15:32:06.510Z,44
2016-11-21T15:33:15.116Z,32
2016-11-21T15:34:24.014Z,28
2016-11-21T15:35:33.225Z,24
2016-11-21T15:36:42.436Z,20
2016-11-21T15:37:51.780Z,12
2016-11-21T15:39:00.357Z,12
2016-11-21T15:40:08.935Z,8
2016-11-21T15:41:18.149Z,8
2016-11-21T15:42:27.367Z,8
2016-11-21T15:43:36.884Z,4
2016-11-21T15:44:45.459Z,4
2016-11-21T15:45:54.354Z,0
2016-11-21T15:47:03.253Z,4
2016-11-21T15:48:12.158Z,4
2016-11-21T15:49:21.102Z,4
2016-11-21T15:50:30.000Z,4
2016-11-21T15:51:38.903Z,4
2016-11-21T15:52:47.795Z,0
2016-11-21T15:53:57.011Z,0
2016-11-21T15:55:06.258Z,0
2016-11-21T15:56:14.847Z,0
2016-11-21T15:57:23.749Z,0
2016-11-21T15:58:32.645Z,0
2016-11-21T15:59:41.573Z,0
2016-11-21T16:00:50.511Z,0
2016-11-21T16:01:59.088Z,0
2016-11-21T16:03:07.671Z,0
2016-11-21T16:04:16.568Z,0
2016-11-21T16:05:25.469Z,0
2016-11-21T16:06:34.468Z,0